AirNav   Phillips 66 Aviation Fuel
 
 1369 users online  

0NJ7 Essex Generating Station Heliport
Newark, New Jersey, USA

GOING TO NEWARK?


FAA INFORMATION EFFECTIVE 12 SEPTEMBER 2019

Location

FAA Identifier: 0NJ7
Lat/Long: 40-44-16.0000N 074-07-08.0000W
40-44.266667N 074-07.133333W
40.7377778,-74.1188889
(estimated)
Elevation: 8 ft. / 2 m (estimated)
Variation: 13W (1985)
From city: 2 miles E of NEWARK, NJ
Time zone: UTC -4 (UTC -5 during Standard Time)
Zip code: 07105

Heliport Operations

Heliport use: Private use. Permission required prior to landing
Activation date: 05/1974
Control tower: no
ARTCC: NEW YORK CENTER
FSS: MILLVILLE FLIGHT SERVICE STATION
Attendance: 
Wind indicator: yes
Segmented circle: no

Heliport Communications

WX ASOS at EWR (4 nm SW): PHONE 973-621-2892
WX AWOS-3PT at JRB (5 nm SE): 128.175 (212-425-1534)
WX ASOS at TEB (7 nm N): 132.025 (201-393-0855)
WX AWOS-3 at LDJ (9 nm SW): 124.025 (908-862-7383)
WX ASOS at CDW (11 nm NW): 135.5 (973-575-4417)
WX ASOS at LGA (11 nm E): PHONE 718-672-6317
WX AWOS-3 at MMU (14 nm W): PHONE 973-290-0135
WX ASOS at JFK (17 nm E): PHONE 718-656-0956

Nearby radio navigation aids

VOR radial/distance  VOR name  Freq  Var
TEBr212/7.1TETERBORO VOR/DME108.4011W
LGAr268/11.7LA GUARDIA VOR/DME113.1012W
CRIr317/12.7CANARSIE VOR/DME112.3011W
JFKr304/17.0KENNEDY VOR/DME115.9012W
COLr015/25.6COLTS NECK VOR/DME115.4011W
SAXr147/27.4SPARTA VORTAC115.7011W
SBJr082/29.8SOLBERG VOR/DME112.9010W
BWZr107/32.1BROADWAY VOR/DME114.2011W
RBVr038/36.4ROBBINSVILLE VORTAC113.8010W
DPKr277/37.2DEER PARK VOR/DME117.7012W
STWr125/37.4STILLWATER VOR/DME109.6011W

 
NDB name  Hdg/Dist  Freq  Var  ID
TORBY183/4.021412WTE - .
CHATHAM104/14.125413WCAT -.-. .- -
BABYLON291/33.627514WBBN -... -... -.

Heliport Services

Runway Information

Helipad H1

Dimensions: 75 x 75 ft. / 23 x 23 m
Surface: asphalt/dirt, in fair condition
Latitude: 40-44.266667N
Longitude: 074-07.133333W
Elevation: 8.0 ft.
Traffic pattern: leftleft
Markings: none, in fair condition

Heliport Ownership and Management from official FAA records

Ownership: Privately-owned
Owner: PUBLIC SERVICE ELEC & GAS CO.
4000 HADLEY RD., MC 429
SOUTH PLAINFIELD, NJ 07080
Phone (732) 489-5653
Manager: MICHAEL J. TODD
4000 HADLEY RD., MC 429
SOUTH PLAINFIELD, NJ 07080
Phone (732) 489-5653

Additional Remarks

FOR CD CTC NEW YORK APCH AT 800-645-3206.

Instrument Procedures

There are no published instrument procedures at 0NJ7.

Some nearby airports with instrument procedures:

KEWR - Newark Liberty International Airport (4 nm SW)
KJRA - West 30th St Heliport (5 nm E)
KJRB - Downtown Manhattan/Wall Street Heliport (5 nm SE)
6N5 - East 34th Street Heliport (7 nm E)
KTEB - Teterboro Airport (7 nm N)
KLDJ - Linden Airport (9 nm SW)
KCDW - Essex County Airport (11 nm NW)
KLGA - LaGuardia Airport (11 nm E)
KMMU - Morristown Municipal Airport (14 nm W)
N07 - Lincoln Park Airport (15 nm NW)
 
Loc | Ops | Rwys | IFR | FBO | Links
Com | Nav | Svcs | Stats | Notes
Area around 0NJ7 (Essex Generating Station Heliport)
 
Road maps at: MapQuest Bing Google
 
Aerial photo
No photo
 
Sectional chart

 
Airport distance calculator
Flying to Essex Generating Station Heliport? Find the distance to fly.

From to 0NJ7

Sunrise and sunset
Times for 20-Sep-2019
 Local
(UTC-4)
 Zulu
(UTC)
Morning civil twilight06:1610:16
Sunrise06:4310:43
Sunset18:5722:57
Evening civil twilight19:2423:24

Current date and time
Zulu (UTC)  20-Sep-2019 17:19:00
Local (UTC-4)  20-Sep-2019 13:19:00
 
METAR
KEWR 
4nm SW 
201651Z 25008KT 10SM BKN250 24/07 A3022 RMK AO2 SLP233 T02440067
KJRB 
5nm SE 
201656Z AUTO 00000KT 10SM CLR 24/10 A3023 RMK AO2 SLP235 T02440100
KNYC 
7nm E 
201651Z AUTO VRB05KT 10SM CLR 23/07 A3024 RMK AO2 SLP232 T02330072 $
KTEB 
8nm N 
201651Z VRB03KT 10SM CLR 24/07 A3021 RMK AO2 SLP229 T02390072
KLDJ 
9nm SW 
201655Z AUTO 33008G14KT 10SM CLR 23/08 A3023 RMK AO2 T02300076
KLGA 
11nm E 
201651Z 32007KT 10SM BKN250 24/08 A3021 RMK AO2 SLP230 T02390078
KCDW 
11nm NW 
201653Z 29005KT 10SM CLR 24/07 A3023 RMK AO2 SLP240 T02440072
KMMU 
14nm W 
201650Z 26007KT 15SM SCT250 23/09 A3023
KJFK 
17nm E 
201651Z 28011KT 10SM BKN250 24/07 A3023 RMK AO2 SLP235 T02390072
TAF
KEWR 
4nm SW 
201537Z 2016/2118 25009G14KT P6SM FEW250 FM201700 28010KT P6SM SCT250 FM202300 25008KT P6SM SCT250 FM210100 27007KT P6SM FEW250 FM210900 30005KT P6SM FEW250 FM211700 26005KT P6SM FEW250
KTEB 
8nm N 
201537Z 2016/2118 30010G15KT P6SM SCT250 FM201700 27009KT P6SM SCT250 FM210000 VRB04KT P6SM FEW250 FM210900 29003KT P6SM FEW250
KLGA 
11nm E 
201537Z 2016/2118 29006KT P6SM FEW250 FM201700 28010KT P6SM SCT250 FM202100 24009KT P6SM SCT250 FM210100 27007KT P6SM FEW250 FM210900 30004KT P6SM FEW250 FM211700 26004KT P6SM FEW250
KJFK 
17nm E 
201537Z 2016/2118 26007KT P6SM FEW250 FM201700 24010KT P6SM SCT250 FM202100 20012KT P6SM SCT250 FM210200 25008KT P6SM FEW250 FM210900 29005KT P6SM FEW250 FM211600 24005KT P6SM FEW250
NOTAMs
Click for the latest NOTAMs
NOTAMs are issued by the DoD/FAA and will open in a separate window not controlled by AirNav.

 

 
 

Would you like to see your business listed on this page?

 If your business provides an interesting product or service to pilots, flight crews, aircraft, or users of the Essex Generating Station Heliport, you should consider listing it here.  To start the listing process, click on the button below
 
Add a business
 

Other Pages about Essex Generating Station Heliport

Update a link
 
Copyright © AirNav, LLC. All rights reserved. Privacy Policy  Contact